Takamine — 7JKK — position and weather

sailwx.info

Track history (hours):
 
Tides and Currents Weather Stations Pressure Air Temp Water Temp Dewpoint Dewpoint Depression Visibility Wind Speed Wind Dir Waves Ship Positions

Takamine

Last reported at 2018-Apr-27 08:29 UTC. Time now 2018-Apr-27 08:40 UTC.
Position N 01°15' E 103°56'.

Length 333 m; draft 10.5 m.

Type: Tanker. MMSI: 432832000.

Date/timePositionNaut miles runAvg speedWind from/ knotsBaromVisibWave heightAir tempDewpointWater temp
2018-Apr-27 08:29N 01°15' E 103°56'0 0.2
2018-Apr-27 07:58N 01°15' E 103°56'0 0.0
2018-Apr-27 07:22N 01°15' E 103°56'0 0.0
2018-Apr-27 06:58N 01°15' E 103°56'0 0.0
2018-Apr-27 06:29N 01°15' E 103°56'0 0.0
2018-Apr-27 05:58N 01°15' E 103°56'0 0.0
2018-Apr-27 05:19N 01°15' E 103°56'0 0.0
2018-Apr-27 04:59N 01°15' E 103°56'0 0.1
2018-Apr-27 04:27N 01°15' E 103°56'0 0.1
2018-Apr-27 03:58N 01°15' E 103°56'0 0.3
2018-Apr-27 03:29N 01°15' E 103°55'0 0.2
2018-Apr-27 02:57N 01°15' E 103°55'0 0.0
2018-Apr-27 02:25N 01°15' E 103°55'0 0.0
2018-Apr-27 01:55N 01°15' E 103°55'0 0.0
2018-Apr-27 01:22N 01°15' E 103°55'0 0.0
2018-Apr-27 00:41N 01°15' E 103°55'0 0.0
2018-Apr-27 00:26N 01°15' E 103°55'0 0.2
2018-Apr-26 23:58N 01°15' E 103°55'0 0.0
2018-Apr-26 23:29N 01°15' E 103°55'0 0.0
2018-Apr-26 22:59N 01°15' E 103°55'0 0.1
2018-Apr-26 22:29N 01°15' E 103°55'0 0.1
2018-Apr-26 21:58N 01°15' E 103°55'0 0.0
2018-Apr-26 21:23N 01°15' E 103°55'0 0.0
2018-Apr-26 20:49N 01°15' E 103°55'0 0.0
2018-Apr-26 20:26N 01°15' E 103°55'0 0.1
2018-Apr-26 19:56N 01°15' E 103°55'0 0.0
2018-Apr-26 19:21N 01°15' E 103°55'0 0.0
2018-Apr-26 18:51N 01°15' E 103°55'0 0.2
2018-Apr-26 18:27N 01°15' E 103°55'0 0.0
2018-Apr-26 17:59N 01°15' E 103°55'0 0.1
2018-Apr-26 17:31N 01°15' E 103°55'0 0.2
2018-Apr-26 16:58N 01°15' E 103°56'0 0.1
2018-Apr-26 16:28N 01°15' E 103°56'0 0.0
2018-Apr-26 15:58N 01°15' E 103°56'0 0.0
2018-Apr-26 15:29N 01°15' E 103°56'0 0.1
2018-Apr-26 14:53N 01°15' E 103°55'0 0.1
2018-Apr-26 14:21N 01°15' E 103°56'0 0.1
2018-Apr-26 13:53N 01°15' E 103°55'0 0.0
2018-Apr-26 13:25N 01°15' E 103°55'0 0.0
2018-Apr-26 12:53N 01°15' E 103°55'0 0.0
2018-Apr-26 12:26N 01°15' E 103°55'0 0.0
2018-Apr-26 11:59N 01°15' E 103°55'0 0.0
2018-Apr-26 11:26N 01°15' E 103°55'0 0.1
2018-Apr-26 10:54N 01°15' E 103°56'0 0.1
2018-Apr-26 10:27N 01°15' E 103°55'0 0.4
2018-Apr-26 09:40N 01°15' E 103°55'0 0.2
2018-Apr-26 09:30N 01°15' E 103°55'0 0.3
2018-Apr-26 08:54N 01°15' E 103°56'0 0.2
2018-Apr-26 08:29N 01°15' E 103°56'0 0.3
2018-Apr-26 07:59N 01°15' E 103°56'1 1.6
2018-Apr-26 07:30N 01°16' E 103°56'3 5.5
2018-Apr-26 06:59N 01°16' E 103°59'2 4.0
2018-Apr-26 06:30N 01°16' E 104°01'3 6.0
2018-Apr-26 05:59N 01°16' E 104°04'4 7.6
2018-Apr-26 05:30N 01°17' E 104°08'4 7.4
2018-Apr-26 04:59N 01°17' E 104°12'4 7.9
2018-Apr-26 04:29N 01°18' E 104°16'4 8.1
2018-Apr-26 03:59N 01°19' E 104°19'4 8.1
2018-Apr-26 03:29N 01°21' E 104°23'4 5.8
2018-Apr-26 02:53N 01°24' E 104°25'2 5.2
2018-Apr-26 02:28N 01°25' E 104°27'4 7.0
2018-Apr-26 01:57N 01°27' E 104°30'3 5.2
2018-Apr-26 01:26N 01°29' E 104°32'8 5.5
2018-Apr-26 00:02N 01°36' E 104°35'2 5.9
2018-Apr-25 23:41N 01°38' E 104°36'5 6.2
2018-Apr-25 22:55N 01°42' E 104°37'3 6.4
2018-Apr-25 22:28N 01°45' E 104°38'3 5.9
2018-Apr-25 21:58N 01°48' E 104°38'3 5.9
2018-Apr-25 21:27N 01°51' E 104°38'4 5.8
2018-Apr-25 20:47N 01°55' E 104°39'2 6.0
2018-Apr-25 20:28N 01°57' E 104°39'  
Track history (hours):
 
Tides and Currents Weather Stations Pressure Air Temp Water Temp Dewpoint Dewpoint Depression Visibility Wind Speed Wind Dir Waves Ship Positions

Takamine

Last reported at 2018-Apr-27 08:29 UTC. Time now 2018-Apr-27 08:40 UTC.
Position N 01°15' E 103°56'.

Length 333 m; draft 10.5 m.

Type: Tanker. MMSI: 432832000.

Date/timePositionNaut miles runAvg speedWind from/ knotsBaromVisibWave heightAir tempDewpointWater temp
2018-Apr-27 08:29N 01°15' E 103°56'0 0.2
2018-Apr-27 07:58N 01°15' E 103°56'0 0.0
2018-Apr-27 07:22N 01°15' E 103°56'0 0.0
2018-Apr-27 06:58N 01°15' E 103°56'0 0.0
2018-Apr-27 06:29N 01°15' E 103°56'0 0.0
2018-Apr-27 05:58N 01°15' E 103°56'0 0.0
2018-Apr-27 05:19N 01°15' E 103°56'0 0.0
2018-Apr-27 04:59N 01°15' E 103°56'0 0.1
2018-Apr-27 04:27N 01°15' E 103°56'0 0.1
2018-Apr-27 03:58N 01°15' E 103°56'0 0.3
2018-Apr-27 03:29N 01°15' E 103°55'0 0.2
2018-Apr-27 02:57N 01°15' E 103°55'0 0.0
2018-Apr-27 02:25N 01°15' E 103°55'0 0.0
2018-Apr-27 01:55N 01°15' E 103°55'0 0.0
2018-Apr-27 01:22N 01°15' E 103°55'0 0.0
2018-Apr-27 00:41N 01°15' E 103°55'0 0.0
2018-Apr-27 00:26N 01°15' E 103°55'0 0.2
2018-Apr-26 23:58N 01°15' E 103°55'0 0.0
2018-Apr-26 23:29N 01°15' E 103°55'0 0.0
2018-Apr-26 22:59N 01°15' E 103°55'0 0.1
2018-Apr-26 22:29N 01°15' E 103°55'0 0.1
2018-Apr-26 21:58N 01°15' E 103°55'0 0.0
2018-Apr-26 21:23N 01°15' E 103°55'0 0.0
2018-Apr-26 20:49N 01°15' E 103°55'0 0.0
2018-Apr-26 20:26N 01°15' E 103°55'0 0.1
2018-Apr-26 19:56N 01°15' E 103°55'0 0.0
2018-Apr-26 19:21N 01°15' E 103°55'0 0.0
2018-Apr-26 18:51N 01°15' E 103°55'0 0.2
2018-Apr-26 18:27N 01°15' E 103°55'0 0.0
2018-Apr-26 17:59N 01°15' E 103°55'0 0.1
2018-Apr-26 17:31N 01°15' E 103°55'0 0.2
2018-Apr-26 16:58N 01°15' E 103°56'0 0.1
2018-Apr-26 16:28N 01°15' E 103°56'0 0.0
2018-Apr-26 15:58N 01°15' E 103°56'0 0.0
2018-Apr-26 15:29N 01°15' E 103°56'0 0.1
2018-Apr-26 14:53N 01°15' E 103°55'0 0.1
2018-Apr-26 14:21N 01°15' E 103°56'0 0.1
2018-Apr-26 13:53N 01°15' E 103°55'0 0.0
2018-Apr-26 13:25N 01°15' E 103°55'0 0.0
2018-Apr-26 12:53N 01°15' E 103°55'0 0.0
2018-Apr-26 12:26N 01°15' E 103°55'0 0.0
2018-Apr-26 11:59N 01°15' E 103°55'0 0.0
2018-Apr-26 11:26N 01°15' E 103°55'0 0.1
2018-Apr-26 10:54N 01°15' E 103°56'0 0.1
2018-Apr-26 10:27N 01°15' E 103°55'0 0.4
2018-Apr-26 09:40N 01°15' E 103°55'0 0.2
2018-Apr-26 09:30N 01°15' E 103°55'0 0.3
2018-Apr-26 08:54N 01°15' E 103°56'0 0.2
2018-Apr-26 08:29N 01°15' E 103°56'0 0.3
2018-Apr-26 07:59N 01°15' E 103°56'1 1.6
2018-Apr-26 07:30N 01°16' E 103°56'3 5.5
2018-Apr-26 06:59N 01°16' E 103°59'2 4.0
2018-Apr-26 06:30N 01°16' E 104°01'3 6.0
2018-Apr-26 05:59N 01°16' E 104°04'4 7.6
2018-Apr-26 05:30N 01°17' E 104°08'4 7.4
2018-Apr-26 04:59N 01°17' E 104°12'4 7.9
2018-Apr-26 04:29N 01°18' E 104°16'4 8.1
2018-Apr-26 03:59N 01°19' E 104°19'4 8.1
2018-Apr-26 03:29N 01°21' E 104°23'4 5.8
2018-Apr-26 02:53N 01°24' E 104°25'2 5.2
2018-Apr-26 02:28N 01°25' E 104°27'4 7.0
2018-Apr-26 01:57N 01°27' E 104°30'3 5.2
2018-Apr-26 01:26N 01°29' E 104°32'8 5.5
2018-Apr-26 00:02N 01°36' E 104°35'2 5.9
2018-Apr-25 23:41N 01°38' E 104°36'5 6.2
2018-Apr-25 22:55N 01°42' E 104°37'3 6.4
2018-Apr-25 22:28N 01°45' E 104°38'3 5.9
2018-Apr-25 21:58N 01°48' E 104°38'3 5.9
2018-Apr-25 21:27N 01°51' E 104°38'4 5.8
2018-Apr-25 20:47N 01°55' E 104°39'2 6.0
2018-Apr-25 20:28N 01°57' E 104°39'  

Dump ship's entire track history